sensor_id;sensor_type;location;lat;lon;timestamp;temperature;humidity
36134;DHT22;40492;43.524;-1.510;2022-07-29T00:00:05;21.10;99.90
36134;DHT22;40492;43.524;-1.510;2022-07-29T00:02:31;21.00;99.90
36134;DHT22;40492;43.524;-1.510;2022-07-29T00:04:57;21.00;99.90
36134;DHT22;40492;43.524;-1.510;2022-07-29T00:07:23;21.10;99.90
36134;DHT22;40492;43.524;-1.510;2022-07-29T00:09:49;21.00;99.90
36134;DHT22;40492;43.524;-1.510;2022-07-29T00:12:15;21.00;99.90
36134;DHT22;40492;43.524;-1.510;2022-07-29T00:14:41;20.90;99.90
36134;DHT22;40492;43.524;-1.510;2022-07-29T00:17:07;20.80;99.90
36134;DHT22;40492;43.524;-1.510;2022-07-29T00:19:33;20.60;99.90
36134;DHT22;40492;43.524;-1.510;2022-07-29T00:21:59;20.50;99.90
36134;DHT22;40492;43.524;-1.510;2022-07-29T00:24:25;20.40;99.90
36134;DHT22;40492;43.524;-1.510;2022-07-29T00:26:51;20.30;99.90
36134;DHT22;40492;43.524;-1.510;2022-07-29T00:29:17;20.20;99.90
36134;DHT22;40492;43.524;-1.510;2022-07-29T00:31:43;20.10;99.90
36134;DHT22;40492;43.524;-1.510;2022-07-29T00:34:09;20.10;99.90
36134;DHT22;40492;43.524;-1.510;2022-07-29T00:36:54;20.00;99.90
36134;DHT22;40492;43.524;-1.510;2022-07-29T00:39:20;19.90;99.90
36134;DHT22;40492;43.524;-1.510;2022-07-29T00:41:46;19.80;99.90
36134;DHT22;40492;43.524;-1.510;2022-07-29T00:44:11;19.80;99.90
36134;DHT22;40492;43.524;-1.510;2022-07-29T00:46:37;19.70;99.90
36134;DHT22;40492;43.524;-1.510;2022-07-29T00:49:03;19.70;99.90
36134;DHT22;40492;43.524;-1.510;2022-07-29T00:51:29;19.70;99.90
36134;DHT22;40492;43.524;-1.510;2022-07-29T00:53:55;19.60;99.90
36134;DHT22;40492;43.524;-1.510;2022-07-29T00:56:22;19.60;99.90
36134;DHT22;40492;43.524;-1.510;2022-07-29T00:58:48;19.60;99.90
36134;DHT22;40492;43.524;-1.510;2022-07-29T01:01:15;19.50;99.90
36134;DHT22;40492;43.524;-1.510;2022-07-29T01:03:41;19.40;99.90
36134;DHT22;40492;43.524;-1.510;2022-07-29T01:06:07;19.40;99.90
36134;DHT22;40492;43.524;-1.510;2022-07-29T01:08:33;19.40;99.90
36134;DHT22;40492;43.524;-1.510;2022-07-29T01:10:59;19.40;99.90
36134;DHT22;40492;43.524;-1.510;2022-07-29T01:13:26;19.30;99.90
36134;DHT22;40492;43.524;-1.510;2022-07-29T01:15:56;19.30;99.90
36134;DHT22;40492;43.524;-1.510;2022-07-29T01:18:24;19.30;99.90
36134;DHT22;40492;43.524;-1.510;2022-07-29T01:34:03;19.30;99.90
36134;DHT22;40492;43.524;-1.510;2022-07-29T01:36:33;19.30;99.90
36134;DHT22;40492;43.524;-1.510;2022-07-29T01:41:29;19.30;99.90
36134;DHT22;40492;43.524;-1.510;2022-07-29T01:44:01;19.20;99.90
36134;DHT22;40492;43.524;-1.510;2022-07-29T01:46:31;19.20;99.90
36134;DHT22;40492;43.524;-1.510;2022-07-29T01:49:05;19.30;99.90
36134;DHT22;40492;43.524;-1.510;2022-07-29T01:51:33;19.30;99.90
36134;DHT22;40492;43.524;-1.510;2022-07-29T01:56:26;19.30;99.90
36134;DHT22;40492;43.524;-1.510;2022-07-29T01:58:56;19.30;99.90
36134;DHT22;40492;43.524;-1.510;2022-07-29T02:01:22;19.30;99.90
36134;DHT22;40492;43.524;-1.510;2022-07-29T02:03:49;19.30;99.90
36134;DHT22;40492;43.524;-1.510;2022-07-29T02:06:16;19.40;99.90
36134;DHT22;40492;43.524;-1.510;2022-07-29T02:08:42;19.40;99.90
36134;DHT22;40492;43.524;-1.510;2022-07-29T02:11:09;19.30;99.90
36134;DHT22;40492;43.524;-1.510;2022-07-29T02:13:35;19.30;99.90
36134;DHT22;40492;43.524;-1.510;2022-07-29T02:16:02;19.40;99.90
36134;DHT22;40492;43.524;-1.510;2022-07-29T02:18:29;19.30;99.90
36134;DHT22;40492;43.524;-1.510;2022-07-29T02:20:56;19.40;99.90
36134;DHT22;40492;43.524;-1.510;2022-07-29T02:23:24;19.30;99.90
36134;DHT22;40492;43.524;-1.510;2022-07-29T02:25:54;19.40;99.90
36134;DHT22;40492;43.524;-1.510;2022-07-29T02:28:20;19.40;99.90
36134;DHT22;40492;43.524;-1.510;2022-07-29T02:30:47;19.40;99.90
36134;DHT22;40492;43.524;-1.510;2022-07-29T02:33:15;19.30;99.90
36134;DHT22;40492;43.524;-1.510;2022-07-29T02:35:44;19.30;99.90
36134;DHT22;40492;43.524;-1.510;2022-07-29T02:38:12;19.30;99.90
36134;DHT22;40492;43.524;-1.510;2022-07-29T02:40:56;19.20;99.90
36134;DHT22;40492;43.524;-1.510;2022-07-29T02:43:22;19.30;99.90
36134;DHT22;40492;43.524;-1.510;2022-07-29T02:45:48;19.30;99.90
36134;DHT22;40492;43.524;-1.510;2022-07-29T02:48:16;19.20;99.90
36134;DHT22;40492;43.524;-1.510;2022-07-29T02:50:50;19.20;99.90
36134;DHT22;40492;43.524;-1.510;2022-07-29T02:53:22;19.20;99.90
36134;DHT22;40492;43.524;-1.510;2022-07-29T02:55:55;19.20;99.90
36134;DHT22;40492;43.524;-1.510;2022-07-29T02:58:25;19.20;99.90
36134;DHT22;40492;43.524;-1.510;2022-07-29T03:00:55;19.20;99.90
36134;DHT22;40492;43.524;-1.510;2022-07-29T03:03:22;19.10;99.90
36134;DHT22;40492;43.524;-1.510;2022-07-29T03:05:53;19.10;99.90
36134;DHT22;40492;43.524;-1.510;2022-07-29T03:08:20;19.10;99.90
36134;DHT22;40492;43.524;-1.510;2022-07-29T03:10:46;19.10;99.90
36134;DHT22;40492;43.524;-1.510;2022-07-29T03:13:12;19.10;99.90
36134;DHT22;40492;43.524;-1.510;2022-07-29T03:15:38;19.10;99.90
36134;DHT22;40492;43.524;-1.510;2022-07-29T03:18:05;19.10;99.90
36134;DHT22;40492;43.524;-1.510;2022-07-29T03:20:31;19.20;99.90
36134;DHT22;40492;43.524;-1.510;2022-07-29T03:22:56;19.20;99.90
36134;DHT22;40492;43.524;-1.510;2022-07-29T03:25:22;19.20;99.90
36134;DHT22;40492;43.524;-1.510;2022-07-29T03:27:48;19.20;99.90
36134;DHT22;40492;43.524;-1.510;2022-07-29T03:30:14;19.20;99.90
36134;DHT22;40492;43.524;-1.510;2022-07-29T03:32:41;19.20;99.90
36134;DHT22;40492;43.524;-1.510;2022-07-29T03:35:06;19.20;99.90
36134;DHT22;40492;43.524;-1.510;2022-07-29T03:37:32;19.20;99.90
36134;DHT22;40492;43.524;-1.510;2022-07-29T03:39:58;19.20;99.90
36134;DHT22;40492;43.524;-1.510;2022-07-29T03:42:26;19.20;99.90
36134;DHT22;40492;43.524;-1.510;2022-07-29T03:44:54;19.20;99.90
36134;DHT22;40492;43.524;-1.510;2022-07-29T03:47:22;19.10;99.90
36134;DHT22;40492;43.524;-1.510;2022-07-29T03:49:49;19.10;99.90
36134;DHT22;40492;43.524;-1.510;2022-07-29T03:52:16;19.00;99.90
36134;DHT22;40492;43.524;-1.510;2022-07-29T03:54:41;19.00;99.90
36134;DHT22;40492;43.524;-1.510;2022-07-29T03:57:07;19.00;99.90
36134;DHT22;40492;43.524;-1.510;2022-07-29T03:59:34;19.00;99.90
36134;DHT22;40492;43.524;-1.510;2022-07-29T04:02:02;19.00;99.90
36134;DHT22;40492;43.524;-1.510;2022-07-29T04:04:28;18.90;99.90
36134;DHT22;40492;43.524;-1.510;2022-07-29T04:06:54;19.00;99.90
36134;DHT22;40492;43.524;-1.510;2022-07-29T04:09:19;18.90;99.90
36134;DHT22;40492;43.524;-1.510;2022-07-29T04:11:45;18.90;99.90
36134;DHT22;40492;43.524;-1.510;2022-07-29T04:14:11;18.80;99.90
36134;DHT22;40492;43.524;-1.510;2022-07-29T04:16:37;18.80;99.90
36134;DHT22;40492;43.524;-1.510;2022-07-29T04:19:03;18.80;99.90
36134;DHT22;40492;43.524;-1.510;2022-07-29T04:21:28;18.60;99.90
36134;DHT22;40492;43.524;-1.510;2022-07-29T04:23:54;18.50;99.90
36134;DHT22;40492;43.524;-1.510;2022-07-29T04:26:20;18.50;99.90
36134;DHT22;40492;43.524;-1.510;2022-07-29T04:28:46;18.50;99.90
36134;DHT22;40492;43.524;-1.510;2022-07-29T04:31:12;18.50;99.90
36134;DHT22;40492;43.524;-1.510;2022-07-29T04:33:38;18.60;99.90
36134;DHT22;40492;43.524;-1.510;2022-07-29T04:36:04;18.60;99.90
36134;DHT22;40492;43.524;-1.510;2022-07-29T04:38:30;18.60;99.90
36134;DHT22;40492;43.524;-1.510;2022-07-29T04:40:56;18.60;99.90
36134;DHT22;40492;43.524;-1.510;2022-07-29T04:43:22;18.70;99.90
36134;DHT22;40492;43.524;-1.510;2022-07-29T04:45:47;18.80;99.90
36134;DHT22;40492;43.524;-1.510;2022-07-29T04:48:13;18.80;99.90
36134;DHT22;40492;43.524;-1.510;2022-07-29T04:50:42;18.80;99.90
36134;DHT22;40492;43.524;-1.510;2022-07-29T04:53:09;19.00;99.90
36134;DHT22;40492;43.524;-1.510;2022-07-29T04:55:35;19.00;99.90
36134;DHT22;40492;43.524;-1.510;2022-07-29T04:58:01;19.00;99.90
36134;DHT22;40492;43.524;-1.510;2022-07-29T05:00:27;19.00;99.90
36134;DHT22;40492;43.524;-1.510;2022-07-29T05:02:53;19.00;99.90
36134;DHT22;40492;43.524;-1.510;2022-07-29T05:05:19;19.10;99.90
36134;DHT22;40492;43.524;-1.510;2022-07-29T05:07:44;19.10;99.90
36134;DHT22;40492;43.524;-1.510;2022-07-29T05:10:10;19.20;99.90
36134;DHT22;40492;43.524;-1.510;2022-07-29T05:12:36;19.20;99.90
36134;DHT22;40492;43.524;-1.510;2022-07-29T05:15:02;19.30;99.90
36134;DHT22;40492;43.524;-1.510;2022-07-29T05:17:28;19.30;99.90
36134;DHT22;40492;43.524;-1.510;2022-07-29T05:19:54;19.30;99.90
36134;DHT22;40492;43.524;-1.510;2022-07-29T05:22:20;19.40;99.90
36134;DHT22;40492;43.524;-1.510;2022-07-29T05:24:46;19.50;99.90
36134;DHT22;40492;43.524;-1.510;2022-07-29T05:27:12;19.50;99.90
36134;DHT22;40492;43.524;-1.510;2022-07-29T05:29:37;19.60;99.90
36134;DHT22;40492;43.524;-1.510;2022-07-29T05:32:04;19.70;99.90
36134;DHT22;40492;43.524;-1.510;2022-07-29T05:34:30;19.70;99.90
36134;DHT22;40492;43.524;-1.510;2022-07-29T05:36:56;19.70;99.90
36134;DHT22;40492;43.524;-1.510;2022-07-29T05:39:22;19.70;99.90
36134;DHT22;40492;43.524;-1.510;2022-07-29T05:41:48;19.70;99.90
36134;DHT22;40492;43.524;-1.510;2022-07-29T05:44:14;19.80;99.90
36134;DHT22;40492;43.524;-1.510;2022-07-29T05:46:40;19.80;99.90
36134;DHT22;40492;43.524;-1.510;2022-07-29T05:49:05;19.80;99.90
36134;DHT22;40492;43.524;-1.510;2022-07-29T05:51:33;19.90;99.90
36134;DHT22;40492;43.524;-1.510;2022-07-29T05:53:59;19.90;99.90
36134;DHT22;40492;43.524;-1.510;2022-07-29T05:56:24;20.00;99.90
36134;DHT22;40492;43.524;-1.510;2022-07-29T05:58:50;20.00;99.90
36134;DHT22;40492;43.524;-1.510;2022-07-29T06:01:16;20.00;99.90
36134;DHT22;40492;43.524;-1.510;2022-07-29T06:03:42;20.10;99.90
36134;DHT22;40492;43.524;-1.510;2022-07-29T06:06:08;20.10;99.90
36134;DHT22;40492;43.524;-1.510;2022-07-29T06:08:34;20.20;99.90
36134;DHT22;40492;43.524;-1.510;2022-07-29T06:11:01;20.20;99.90
36134;DHT22;40492;43.524;-1.510;2022-07-29T06:13:27;20.30;99.90
36134;DHT22;40492;43.524;-1.510;2022-07-29T06:15:53;20.40;99.90
36134;DHT22;40492;43.524;-1.510;2022-07-29T06:18:19;20.40;99.90
36134;DHT22;40492;43.524;-1.510;2022-07-29T06:20:46;20.40;99.90
36134;DHT22;40492;43.524;-1.510;2022-07-29T06:23:12;20.40;99.90
36134;DHT22;40492;43.524;-1.510;2022-07-29T06:25:39;20.40;99.90
36134;DHT22;40492;43.524;-1.510;2022-07-29T06:28:05;20.40;99.90
36134;DHT22;40492;43.524;-1.510;2022-07-29T06:30:31;20.40;99.90
36134;DHT22;40492;43.524;-1.510;2022-07-29T06:32:57;20.30;99.90
36134;DHT22;40492;43.524;-1.510;2022-07-29T06:35:23;20.30;99.90
36134;DHT22;40492;43.524;-1.510;2022-07-29T06:37:49;20.30;99.90
36134;DHT22;40492;43.524;-1.510;2022-07-29T06:40:14;20.30;99.90
36134;DHT22;40492;43.524;-1.510;2022-07-29T06:42:59;20.30;99.90
36134;DHT22;40492;43.524;-1.510;2022-07-29T06:45:25;20.40;99.90
36134;DHT22;40492;43.524;-1.510;2022-07-29T06:47:50;20.40;99.90
36134;DHT22;40492;43.524;-1.510;2022-07-29T06:50:17;20.40;99.90
36134;DHT22;40492;43.524;-1.510;2022-07-29T06:52:43;20.30;99.90
36134;DHT22;40492;43.524;-1.510;2022-07-29T06:55:09;20.40;99.90
36134;DHT22;40492;43.524;-1.510;2022-07-29T06:57:35;20.40;99.90
36134;DHT22;40492;43.524;-1.510;2022-07-29T07:00:01;20.40;99.90
36134;DHT22;40492;43.524;-1.510;2022-07-29T07:02:29;20.40;99.90
36134;DHT22;40492;43.524;-1.510;2022-07-29T07:04:55;20.50;99.90
36134;DHT22;40492;43.524;-1.510;2022-07-29T07:07:21;20.50;99.90
36134;DHT22;40492;43.524;-1.510;2022-07-29T07:09:46;20.50;99.90
36134;DHT22;40492;43.524;-1.510;2022-07-29T07:12:12;20.50;99.90
36134;DHT22;40492;43.524;-1.510;2022-07-29T07:14:38;20.50;99.90
36134;DHT22;40492;43.524;-1.510;2022-07-29T07:17:05;20.50;99.90
36134;DHT22;40492;43.524;-1.510;2022-07-29T07:19:32;20.60;99.90
36134;DHT22;40492;43.524;-1.510;2022-07-29T07:21:57;20.60;99.90
36134;DHT22;40492;43.524;-1.510;2022-07-29T07:24:23;20.50;99.90
36134;DHT22;40492;43.524;-1.510;2022-07-29T07:26:49;20.60;99.90
36134;DHT22;40492;43.524;-1.510;2022-07-29T07:29:15;20.60;99.90
36134;DHT22;40492;43.524;-1.510;2022-07-29T07:31:41;20.60;99.90
36134;DHT22;40492;43.524;-1.510;2022-07-29T07:34:07;20.70;99.90
36134;DHT22;40492;43.524;-1.510;2022-07-29T07:36:32;20.70;99.90
36134;DHT22;40492;43.524;-1.510;2022-07-29T07:38:58;20.70;99.90
36134;DHT22;40492;43.524;-1.510;2022-07-29T07:41:24;20.80;99.90
36134;DHT22;40492;43.524;-1.510;2022-07-29T07:43:50;20.80;99.90
36134;DHT22;40492;43.524;-1.510;2022-07-29T07:46:15;20.90;99.90
36134;DHT22;40492;43.524;-1.510;2022-07-29T07:48:41;20.90;99.90
36134;DHT22;40492;43.524;-1.510;2022-07-29T07:51:07;21.00;99.90
36134;DHT22;40492;43.524;-1.510;2022-07-29T07:53:33;21.00;99.90
36134;DHT22;40492;43.524;-1.510;2022-07-29T07:55:59;21.00;99.90
36134;DHT22;40492;43.524;-1.510;2022-07-29T07:58:25;21.10;99.90
36134;DHT22;40492;43.524;-1.510;2022-07-29T08:00:50;21.10;99.90
36134;DHT22;40492;43.524;-1.510;2022-07-29T08:03:17;21.10;99.90
36134;DHT22;40492;43.524;-1.510;2022-07-29T08:05:43;21.10;99.90
36134;DHT22;40492;43.524;-1.510;2022-07-29T08:08:09;21.20;99.90
36134;DHT22;40492;43.524;-1.510;2022-07-29T08:10:34;21.30;99.90
36134;DHT22;40492;43.524;-1.510;2022-07-29T08:13:26;21.30;99.90
36134;DHT22;40492;43.524;-1.510;2022-07-29T08:15:55;21.30;99.90
36134;DHT22;40492;43.524;-1.510;2022-07-29T08:18:25;21.40;99.90
36134;DHT22;40492;43.524;-1.510;2022-07-29T08:20:51;21.40;99.90
36134;DHT22;40492;43.524;-1.510;2022-07-29T08:23:17;21.50;99.90
36134;DHT22;40492;43.524;-1.510;2022-07-29T08:25:44;21.50;99.90
36134;DHT22;40492;43.524;-1.510;2022-07-29T08:28:10;21.70;99.90
36134;DHT22;40492;43.524;-1.510;2022-07-29T08:30:36;21.70;99.90
36134;DHT22;40492;43.524;-1.510;2022-07-29T08:33:01;21.80;99.90
36134;DHT22;40492;43.524;-1.510;2022-07-29T08:35:27;21.90;99.90
36134;DHT22;40492;43.524;-1.510;2022-07-29T08:37:53;21.90;99.90
36134;DHT22;40492;43.524;-1.510;2022-07-29T08:40:20;22.00;99.90
36134;DHT22;40492;43.524;-1.510;2022-07-29T08:42:46;22.10;99.90
36134;DHT22;40492;43.524;-1.510;2022-07-29T08:45:12;22.10;99.90
36134;DHT22;40492;43.524;-1.510;2022-07-29T08:47:38;22.10;99.90
36134;DHT22;40492;43.524;-1.510;2022-07-29T08:50:08;22.20;99.90
36134;DHT22;40492;43.524;-1.510;2022-07-29T08:52:38;22.30;99.90
36134;DHT22;40492;43.524;-1.510;2022-07-29T08:55:05;22.20;99.90
36134;DHT22;40492;43.524;-1.510;2022-07-29T08:57:33;22.30;99.90
36134;DHT22;40492;43.524;-1.510;2022-07-29T09:00:00;22.30;99.90
36134;DHT22;40492;43.524;-1.510;2022-07-29T09:02:26;22.40;99.90
36134;DHT22;40492;43.524;-1.510;2022-07-29T09:04:53;22.50;99.90
36134;DHT22;40492;43.524;-1.510;2022-07-29T09:07:19;22.60;99.90
36134;DHT22;40492;43.524;-1.510;2022-07-29T09:09:45;22.70;99.90
36134;DHT22;40492;43.524;-1.510;2022-07-29T09:12:12;22.80;99.90
36134;DHT22;40492;43.524;-1.510;2022-07-29T09:14:38;22.90;99.90
36134;DHT22;40492;43.524;-1.510;2022-07-29T09:17:04;23.00;99.90
36134;DHT22;40492;43.524;-1.510;2022-07-29T09:19:30;23.00;99.90
36134;DHT22;40492;43.524;-1.510;2022-07-29T09:21:58;22.90;99.90
36134;DHT22;40492;43.524;-1.510;2022-07-29T09:24:29;22.90;99.90
36134;DHT22;40492;43.524;-1.510;2022-07-29T09:27:02;23.10;99.90
36134;DHT22;40492;43.524;-1.510;2022-07-29T09:29:28;23.20;99.90
36134;DHT22;40492;43.524;-1.510;2022-07-29T09:31:54;23.40;99.90
36134;DHT22;40492;43.524;-1.510;2022-07-29T09:34:24;23.60;99.90
36134;DHT22;40492;43.524;-1.510;2022-07-29T09:36:50;23.70;99.90
36134;DHT22;40492;43.524;-1.510;2022-07-29T09:39:26;23.90;99.90
36134;DHT22;40492;43.524;-1.510;2022-07-29T09:41:53;23.90;99.90
36134;DHT22;40492;43.524;-1.510;2022-07-29T09:44:20;24.30;99.90
36134;DHT22;40492;43.524;-1.510;2022-07-29T09:46:59;24.40;99.90
36134;DHT22;40492;43.524;-1.510;2022-07-29T09:49:34;24.50;99.90
36134;DHT22;40492;43.524;-1.510;2022-07-29T09:52:02;24.70;99.90
36134;DHT22;40492;43.524;-1.510;2022-07-29T09:54:28;24.70;99.90
36134;DHT22;40492;43.524;-1.510;2022-07-29T09:56:59;24.70;99.90
36134;DHT22;40492;43.524;-1.510;2022-07-29T09:59:25;24.90;99.90
36134;DHT22;40492;43.524;-1.510;2022-07-29T10:01:52;25.10;99.90
36134;DHT22;40492;43.524;-1.510;2022-07-29T10:04:18;25.20;99.90
36134;DHT22;40492;43.524;-1.510;2022-07-29T10:07:00;25.40;99.90
36134;DHT22;40492;43.524;-1.510;2022-07-29T10:09:26;25.60;99.90
36134;DHT22;40492;43.524;-1.510;2022-07-29T10:12:05;25.90;99.90
36134;DHT22;40492;43.524;-1.510;2022-07-29T10:14:32;25.70;99.90
36134;DHT22;40492;43.524;-1.510;2022-07-29T10:16:59;25.80;99.90
36134;DHT22;40492;43.524;-1.510;2022-07-29T10:19:25;25.90;99.90
36134;DHT22;40492;43.524;-1.510;2022-07-29T10:21:51;25.90;99.90
36134;DHT22;40492;43.524;-1.510;2022-07-29T10:24:17;25.90;99.90
36134;DHT22;40492;43.524;-1.510;2022-07-29T10:26:43;25.90;99.90
36134;DHT22;40492;43.524;-1.510;2022-07-29T10:29:11;25.90;99.90
36134;DHT22;40492;43.524;-1.510;2022-07-29T10:31:46;26.00;99.90
36134;DHT22;40492;43.524;-1.510;2022-07-29T10:34:16;26.20;99.90
36134;DHT22;40492;43.524;-1.510;2022-07-29T10:44:29;26.50;99.90
36134;DHT22;40492;43.524;-1.510;2022-07-29T10:46:55;26.60;99.90
36134;DHT22;40492;43.524;-1.510;2022-07-29T10:49:24;26.80;99.90
36134;DHT22;40492;43.524;-1.510;2022-07-29T10:54:18;27.30;99.90
36134;DHT22;40492;43.524;-1.510;2022-07-29T10:56:44;27.50;99.90
36134;DHT22;40492;43.524;-1.510;2022-07-29T11:01:52;28.20;99.90
36134;DHT22;40492;43.524;-1.510;2022-07-29T11:09:28;29.80;99.90
36134;DHT22;40492;43.524;-1.510;2022-07-29T11:11:56;30.00;99.90
36134;DHT22;40492;43.524;-1.510;2022-07-29T11:17:06;31.40;99.90
36134;DHT22;40492;43.524;-1.510;2022-07-29T11:19:33;32.40;99.90
36134;DHT22;40492;43.524;-1.510;2022-07-29T11:21:59;33.90;99.90
36134;DHT22;40492;43.524;-1.510;2022-07-29T11:24:26;34.90;99.90
36134;DHT22;40492;43.524;-1.510;2022-07-29T11:27:12;36.00;99.90
36134;DHT22;40492;43.524;-1.510;2022-07-29T11:29:47;36.90;97.80
36134;DHT22;40492;43.524;-1.510;2022-07-29T11:32:13;37.20;93.20
36134;DHT22;40492;43.524;-1.510;2022-07-29T11:34:41;36.70;90.40
36134;DHT22;40492;43.524;-1.510;2022-07-29T11:39:40;36.30;87.70
36134;DHT22;40492;43.524;-1.510;2022-07-29T11:44:58;37.30;81.40
36134;DHT22;40492;43.524;-1.510;2022-07-29T11:47:26;37.50;80.00
36134;DHT22;40492;43.524;-1.510;2022-07-29T11:49:52;37.90;77.20
36134;DHT22;40492;43.524;-1.510;2022-07-29T11:52:19;38.00;74.90
36134;DHT22;40492;43.524;-1.510;2022-07-29T11:54:47;38.10;73.70
36134;DHT22;40492;43.524;-1.510;2022-07-29T11:57:13;38.60;71.40
36134;DHT22;40492;43.524;-1.510;2022-07-29T11:59:40;38.70;70.00
36134;DHT22;40492;43.524;-1.510;2022-07-29T12:02:07;38.80;69.90
36134;DHT22;40492;43.524;-1.510;2022-07-29T12:04:33;39.30;67.60
36134;DHT22;40492;43.524;-1.510;2022-07-29T12:06:59;39.50;66.30
36134;DHT22;40492;43.524;-1.510;2022-07-29T12:09:25;39.40;65.00
36134;DHT22;40492;43.524;-1.510;2022-07-29T12:11:58;39.20;64.60
36134;DHT22;40492;43.524;-1.510;2022-07-29T12:14:31;39.30;63.80
36134;DHT22;40492;43.524;-1.510;2022-07-29T12:16:57;39.40;63.30
36134;DHT22;40492;43.524;-1.510;2022-07-29T12:19:23;39.60;63.00
36134;DHT22;40492;43.524;-1.510;2022-07-29T12:21:50;39.80;61.80
36134;DHT22;40492;43.524;-1.510;2022-07-29T12:24:16;39.80;61.20
36134;DHT22;40492;43.524;-1.510;2022-07-29T12:26:48;39.50;60.90
36134;DHT22;40492;43.524;-1.510;2022-07-29T12:29:15;39.80;60.80
36134;DHT22;40492;43.524;-1.510;2022-07-29T12:31:43;39.80;60.50
36134;DHT22;40492;43.524;-1.510;2022-07-29T12:34:12;40.20;59.50
36134;DHT22;40492;43.524;-1.510;2022-07-29T12:36:38;39.90;59.30
36134;DHT22;40492;43.524;-1.510;2022-07-29T12:39:04;40.20;59.10
36134;DHT22;40492;43.524;-1.510;2022-07-29T12:41:30;40.60;58.10
36134;DHT22;40492;43.524;-1.510;2022-07-29T12:43:55;40.20;57.40
36134;DHT22;40492;43.524;-1.510;2022-07-29T12:46:21;39.90;57.40
36134;DHT22;40492;43.524;-1.510;2022-07-29T12:48:50;39.70;57.80
36134;DHT22;40492;43.524;-1.510;2022-07-29T12:51:16;39.80;57.70
36134;DHT22;40492;43.524;-1.510;2022-07-29T12:54:01;39.80;57.20
36134;DHT22;40492;43.524;-1.510;2022-07-29T12:56:29;39.80;57.50
36134;DHT22;40492;43.524;-1.510;2022-07-29T12:58:55;39.70;57.00
36134;DHT22;40492;43.524;-1.510;2022-07-29T13:01:21;39.50;57.30
36134;DHT22;40492;43.524;-1.510;2022-07-29T13:06:32;39.90;56.50
36134;DHT22;40492;43.524;-1.510;2022-07-29T13:08:59;39.60;56.40
36134;DHT22;40492;43.524;-1.510;2022-07-29T13:11:29;39.60;56.60
36134;DHT22;40492;43.524;-1.510;2022-07-29T13:13:55;39.30;56.50
36134;DHT22;40492;43.524;-1.510;2022-07-29T13:16:21;38.80;57.20
36134;DHT22;40492;43.524;-1.510;2022-07-29T13:18:46;37.70;57.60
36134;DHT22;40492;43.524;-1.510;2022-07-29T13:21:13;37.00;58.70
36134;DHT22;40492;43.524;-1.510;2022-07-29T13:23:39;36.20;60.70
36134;DHT22;40492;43.524;-1.510;2022-07-29T13:26:08;35.70;61.60
36134;DHT22;40492;43.524;-1.510;2022-07-29T13:28:34;35.10;63.20
36134;DHT22;40492;43.524;-1.510;2022-07-29T13:31:00;34.40;64.20
36134;DHT22;40492;43.524;-1.510;2022-07-29T13:33:26;34.00;65.80
36134;DHT22;40492;43.524;-1.510;2022-07-29T13:35:52;33.50;67.00
36134;DHT22;40492;43.524;-1.510;2022-07-29T13:38:18;33.20;68.70
36134;DHT22;40492;43.524;-1.510;2022-07-29T13:40:44;32.90;70.00
36134;DHT22;40492;43.524;-1.510;2022-07-29T13:43:10;32.30;71.40
36134;DHT22;40492;43.524;-1.510;2022-07-29T13:45:36;31.90;72.10
36134;DHT22;40492;43.524;-1.510;2022-07-29T13:48:02;31.80;73.50
36134;DHT22;40492;43.524;-1.510;2022-07-29T13:50:27;31.30;73.90
36134;DHT22;40492;43.524;-1.510;2022-07-29T13:52:53;31.00;75.00
36134;DHT22;40492;43.524;-1.510;2022-07-29T13:55:19;30.80;75.70
36134;DHT22;40492;43.524;-1.510;2022-07-29T13:57:44;30.60;76.10
36134;DHT22;40492;43.524;-1.510;2022-07-29T14:00:11;30.70;77.50
36134;DHT22;40492;43.524;-1.510;2022-07-29T14:02:37;30.70;77.40
36134;DHT22;40492;43.524;-1.510;2022-07-29T14:05:04;30.60;77.50
36134;DHT22;40492;43.524;-1.510;2022-07-29T14:07:30;30.60;78.00
36134;DHT22;40492;43.524;-1.510;2022-07-29T14:09:56;30.70;78.80
36134;DHT22;40492;43.524;-1.510;2022-07-29T14:12:22;30.70;78.80
36134;DHT22;40492;43.524;-1.510;2022-07-29T14:14:48;30.70;78.90
36134;DHT22;40492;43.524;-1.510;2022-07-29T14:17:14;30.80;79.80
36134;DHT22;40492;43.524;-1.510;2022-07-29T14:19:40;31.00;79.40
36134;DHT22;40492;43.524;-1.510;2022-07-29T14:22:06;30.70;79.60
36134;DHT22;40492;43.524;-1.510;2022-07-29T14:24:32;30.80;80.00
36134;DHT22;40492;43.524;-1.510;2022-07-29T14:26:58;30.60;80.50
36134;DHT22;40492;43.524;-1.510;2022-07-29T14:29:24;30.70;80.30
36134;DHT22;40492;43.524;-1.510;2022-07-29T14:31:50;30.50;80.50
36134;DHT22;40492;43.524;-1.510;2022-07-29T14:34:15;30.50;80.60
36134;DHT22;40492;43.524;-1.510;2022-07-29T14:36:41;30.30;81.10
36134;DHT22;40492;43.524;-1.510;2022-07-29T14:39:07;30.20;81.80
36134;DHT22;40492;43.524;-1.510;2022-07-29T14:41:33;30.40;82.30
36134;DHT22;40492;43.524;-1.510;2022-07-29T14:43:59;30.50;82.20
36134;DHT22;40492;43.524;-1.510;2022-07-29T14:46:27;30.70;81.70
36134;DHT22;40492;43.524;-1.510;2022-07-29T14:48:53;30.70;82.40
36134;DHT22;40492;43.524;-1.510;2022-07-29T14:51:19;30.80;82.90
36134;DHT22;40492;43.524;-1.510;2022-07-29T14:53:45;30.80;82.80
36134;DHT22;40492;43.524;-1.510;2022-07-29T14:56:11;30.90;82.70
36134;DHT22;40492;43.524;-1.510;2022-07-29T14:58:36;30.90;82.80
36134;DHT22;40492;43.524;-1.510;2022-07-29T15:01:02;30.90;83.10
36134;DHT22;40492;43.524;-1.510;2022-07-29T15:03:28;31.00;83.20
36134;DHT22;40492;43.524;-1.510;2022-07-29T15:05:54;31.00;82.70
36134;DHT22;40492;43.524;-1.510;2022-07-29T15:08:20;31.10;83.00
36134;DHT22;40492;43.524;-1.510;2022-07-29T15:10:46;31.00;82.70
36134;DHT22;40492;43.524;-1.510;2022-07-29T15:13:12;31.00;82.70
36134;DHT22;40492;43.524;-1.510;2022-07-29T15:15:38;31.00;83.60
36134;DHT22;40492;43.524;-1.510;2022-07-29T15:18:04;31.00;84.00
36134;DHT22;40492;43.524;-1.510;2022-07-29T15:20:30;31.00;84.40
36134;DHT22;40492;43.524;-1.510;2022-07-29T15:22:55;31.00;84.10
36134;DHT22;40492;43.524;-1.510;2022-07-29T15:25:22;31.00;83.70
36134;DHT22;40492;43.524;-1.510;2022-07-29T15:27:48;31.00;84.50
36134;DHT22;40492;43.524;-1.510;2022-07-29T15:30:14;31.20;84.60
36134;DHT22;40492;43.524;-1.510;2022-07-29T15:32:45;31.10;84.10
36134;DHT22;40492;43.524;-1.510;2022-07-29T15:35:11;31.20;84.20
36134;DHT22;40492;43.524;-1.510;2022-07-29T15:37:37;31.30;84.30
36134;DHT22;40492;43.524;-1.510;2022-07-29T15:40:04;31.40;84.00
36134;DHT22;40492;43.524;-1.510;2022-07-29T15:42:30;31.30;83.80
36134;DHT22;40492;43.524;-1.510;2022-07-29T15:44:56;31.40;83.50
36134;DHT22;40492;43.524;-1.510;2022-07-29T15:47:22;31.30;83.80
36134;DHT22;40492;43.524;-1.510;2022-07-29T15:49:48;31.60;84.20
36134;DHT22;40492;43.524;-1.510;2022-07-29T15:52:14;31.80;83.80
36134;DHT22;40492;43.524;-1.510;2022-07-29T15:54:40;31.80;83.70
36134;DHT22;40492;43.524;-1.510;2022-07-29T15:57:06;31.70;83.60
36134;DHT22;40492;43.524;-1.510;2022-07-29T15:59:32;31.70;84.30